Astin, Texas
Current Conditions -  °F | °C
As of 5:35 PM on Saturday 22 Nov 2014 (Local Time) from KLHB Reporting Station
Moderate Rain Moderate Rain  
Wind Chill: 64°   Ceiling: 1400
Heat Index: 64°   Visibility: 10mi
Dew Point: 62°   Wind: 7mph
Humidity: 96%   Direction: 90°E
Pressure: 29.8"   Gusts: NA
Location:  30.8324°N, 96.5749°W
Report Text: KLHB 222335Z AUTO 09006KT 10SM RA SCT007 OVC014 18/17 A2980 RMK AO2 LTG DSNT ALQS P0001 T01750168
Loading
Personal Weather Stations






























Interactive Weather Map New forecast layout! Learn more

10-Day Weather Forecast

Advertisements
Track Severe Weather on mobile